NCAR-RAP Real-Time Weather Data

Output produced by METARs form (06 May 2021  15:52 UTC)
found at http://weather.rap.ucar.edu/surface/
 
KGEZ 061453Z AUTO 19009KT 10SM BKN110 14/02 A3013 RMK AO2 SLP203 T01440017 58006
KGEZ 061353Z AUTO 16006KT 10SM FEW120 12/01 A3015 RMK AO2 SLP208 T01220006
KGEZ 061253Z AUTO VRB03KT 10SM CLR 11/03 A3015 RMK AO2 SLP209 T01060028
KGEZ 061153Z AUTO 00000KT 10SM CLR 07/03 A3015 RMK AO2 SLP209 T00720033 10083 20044 53001
KGEZ 061053Z AUTO 00000KT 10SM CLR 04/01 A3014 RMK AO2 SLP206 T00440011
KGEZ 060953Z AUTO 00000KT 10SM CLR 05/01 A3014 RMK AO2 SLP206 T00500011
KGEZ 060853Z AUTO 00000KT 10SM CLR 05/02 A3014 RMK AO2 SLP208 T00500017 55003
KGEZ 060753Z AUTO 00000KT 10SM CLR 06/01 A3014 RMK AO2 SLP206 T00560011
KGEZ 060653Z AUTO 00000KT 10SM CLR 07/01 A3014 RMK AO2 SLP206 T00720006
KGEZ 060553Z AUTO 35003KT 10SM CLR 08/00 A3015 RMK AO2 SLP210 T00780000 10156 20078 58000
KGEZ 060453Z AUTO 00000KT 10SM CLR 09/00 A3016 RMK AO2 SLP213 T00890000 401780083
KGEZ 060353Z AUTO 34004KT 10SM CLR 09/01 A3016 RMK AO2 SLP212 T00890011
KGEZ 060253Z AUTO 36004KT 10SM CLR 11/00 A3015 RMK AO2 SLP210 T01060000 51015
KGEZ 060153Z AUTO 35005KT 10SM CLR 11/02 A3014 RMK AO2 SLP207 T01110022
KGEZ 060053Z AUTO 35007KT 10SM CLR 12/03 A3012 RMK AO2 SLP201 T01220028
KGEZ 052353Z AUTO 35008KT 10SM CLR 16/02 A3011 RMK AO2 SLP194 T01560017 10178 20156 53005